createdAt,value
2022-12-27T02:06:23.510Z,3.41
2022-12-27T02:08:58.145Z,3.43
2022-12-27T02:11:47.354Z,3.35
2022-12-27T02:14:16.224Z,3.28
2022-12-27T02:16:43.588Z,3.34
2022-12-27T02:19:15.787Z,2.91
2022-12-27T02:21:56.851Z,3.01
2022-12-27T02:24:50.984Z,3.09
2022-12-27T02:27:38.275Z,3.07
2022-12-27T02:30:06.328Z,3.15
2022-12-27T02:32:37.416Z,3.07
2022-12-27T02:35:09.072Z,3.21
2022-12-27T02:37:39.865Z,2.84
2022-12-27T02:40:26.283Z,3.09
2022-12-27T02:43:12.168Z,3.12
2022-12-27T02:46:00.707Z,3.19
2022-12-27T02:48:46.922Z,2.85
2022-12-27T02:51:55.642Z,3.19
2022-12-27T02:54:32.018Z,3.05
2022-12-27T02:57:09.429Z,3.32
2022-12-27T03:00:17.574Z,3.23
2022-12-27T03:03:04.264Z,3.13
2022-12-27T03:06:10.419Z,3.29
2022-12-27T03:08:58.340Z,2.84
2022-12-27T03:11:44.307Z,2.97
2022-12-27T03:14:36.614Z,2.98
2022-12-27T03:17:20.210Z,3.02
2022-12-27T03:20:07.027Z,3.12
2022-12-27T03:22:54.270Z,3.15
2022-12-27T03:25:31.369Z,3.23
2022-12-27T03:28:27.625Z,3.36
2022-12-27T03:31:16.989Z,3.27
2022-12-27T03:33:44.504Z,2.99
2022-12-27T03:36:34.690Z,3.12
2022-12-27T03:39:17.620Z,3.11
2022-12-27T03:42:06.461Z,3.12
2022-12-27T03:44:33.859Z,3.27
2022-12-27T03:47:04.474Z,3.14
2022-12-27T03:49:44.951Z,3.08
2022-12-27T03:52:20.434Z,2.75
2022-12-27T03:54:48.390Z,2.96
2022-12-27T03:57:19.004Z,2.97
2022-12-27T03:59:46.390Z,3.19
2022-12-27T04:02:14.047Z,3.16
2022-12-27T04:04:41.886Z,3.06
2022-12-27T04:07:09.383Z,3.09
2022-12-27T04:09:55.991Z,2.69
2022-12-27T04:12:41.916Z,2.84
2022-12-27T04:15:28.825Z,2.71
2022-12-27T04:18:14.889Z,2.43
2022-12-27T04:21:00.870Z,2.72
2022-12-27T04:23:47.076Z,2.93
2022-12-27T04:26:33.477Z,2.99
2022-12-27T04:29:19.653Z,2.88
2022-12-27T04:32:06.084Z,2.85
2022-12-27T04:34:45.535Z,2.84
2022-12-27T04:37:13.948Z,2.75
2022-12-27T04:39:42.011Z,2.63
2022-12-27T04:42:28.620Z,2.77
2022-12-27T04:45:15.573Z,2.50
2022-12-27T04:48:02.215Z,2.44
2022-12-27T04:50:49.359Z,2.68
2022-12-27T04:53:37.337Z,2.54
2022-12-27T04:56:05.650Z,2.41
2022-12-27T04:58:33.165Z,2.55
2022-12-27T05:01:21.805Z,2.63
2022-12-27T05:03:49.634Z,2.50
2022-12-27T05:06:17.453Z,2.48
2022-12-27T05:09:03.654Z,2.28
2022-12-27T05:11:50.870Z,2.59
2022-12-27T05:14:18.651Z,2.48
2022-12-27T05:16:46.057Z,2.49
2022-12-27T05:19:14.054Z,2.19
2022-12-27T05:22:01.244Z,2.33
2022-12-27T05:24:47.318Z,2.57
2022-12-27T05:27:14.780Z,2.60
2022-12-27T05:29:42.624Z,2.48
2022-12-27T05:32:13.440Z,2.34
2022-12-27T05:34:41.392Z,2.37
2022-12-27T05:37:08.810Z,2.41
2022-12-27T05:39:36.223Z,2.61
2022-12-27T05:42:03.646Z,2.69
2022-12-27T05:44:31.086Z,2.36
2022-12-27T05:46:59.636Z,2.37
2022-12-27T05:49:27.000Z,2.43
2022-12-27T05:51:54.898Z,2.47
2022-12-27T05:54:22.545Z,2.43
2022-12-27T05:56:53.313Z,2.47
2022-12-27T05:59:20.776Z,2.25
2022-12-27T06:01:48.224Z,2.49
2022-12-27T06:04:16.280Z,2.42
2022-12-27T06:06:43.964Z,2.32
2022-12-27T06:09:11.559Z,2.35
2022-12-27T06:11:38.982Z,2.26
2022-12-27T06:14:07.708Z,2.40
2022-12-27T06:16:35.896Z,2.21
2022-12-27T06:19:04.908Z,2.28
2022-12-27T06:21:32.606Z,2.07
2022-12-27T06:24:00.301Z,2.21
2022-12-27T06:26:28.755Z,2.19
2022-12-27T06:28:56.611Z,2.32
2022-12-27T06:31:28.145Z,2.37
2022-12-27T06:33:55.692Z,2.27
2022-12-27T06:36:26.459Z,2.29
2022-12-27T06:38:53.852Z,2.39
2022-12-27T06:41:21.202Z,2.43
2022-12-27T06:43:53.807Z,2.36
2022-12-27T06:46:21.456Z,2.43
2022-12-27T06:48:49.050Z,2.45
2022-12-27T06:51:17.241Z,2.32
2022-12-27T06:53:47.407Z,2.12
2022-12-27T06:56:17.082Z,2.16
2022-12-27T06:58:44.892Z,2.22
2022-12-27T07:01:13.595Z,2.27
2022-12-27T07:03:41.360Z,2.23
2022-12-27T07:06:09.442Z,2.45
2022-12-27T07:08:37.378Z,2.21
2022-12-27T07:11:05.784Z,2.44
2022-12-27T07:13:34.610Z,2.37
2022-12-27T07:16:04.068Z,2.33
2022-12-27T07:18:32.418Z,2.32
2022-12-27T07:20:59.835Z,2.45
2022-12-27T07:23:27.168Z,2.68
2022-12-27T07:25:54.648Z,2.40
2022-12-27T07:28:22.049Z,2.19
2022-12-27T07:30:50.676Z,2.40
2022-12-27T07:33:18.085Z,2.36
2022-12-27T07:35:46.120Z,2.35
2022-12-27T07:38:13.634Z,2.32
2022-12-27T07:40:41.968Z,2.19
2022-12-27T07:43:09.311Z,2.30
2022-12-27T07:45:36.627Z,2.39
2022-12-27T07:48:04.388Z,2.55
2022-12-27T07:50:32.070Z,2.65
2022-12-27T07:52:59.483Z,2.47
2022-12-27T07:55:26.781Z,2.60
2022-12-27T07:57:54.116Z,2.55
2022-12-27T08:00:21.627Z,2.62
2022-12-27T08:02:49.017Z,2.61
2022-12-27T08:05:16.781Z,2.64
2022-12-27T08:07:44.218Z,2.65
2022-12-27T08:10:11.574Z,2.54
2022-12-27T08:12:41.033Z,2.55
2022-12-27T08:15:09.302Z,2.56
2022-12-27T08:17:37.033Z,2.70
2022-12-27T08:20:04.733Z,2.70
2022-12-27T08:22:32.810Z,2.67
2022-12-27T08:25:00.198Z,2.80
2022-12-27T08:27:27.848Z,2.78
2022-12-27T08:29:55.293Z,2.67
2022-12-27T08:32:22.783Z,2.74
2022-12-27T08:34:50.198Z,2.84
2022-12-27T08:37:17.518Z,2.86
2022-12-27T08:39:45.264Z,2.78
2022-12-27T08:42:14.268Z,2.93
2022-12-27T08:44:41.595Z,2.96
2022-12-27T08:47:08.996Z,2.98
2022-12-27T08:49:36.528Z,2.90
2022-12-27T08:52:04.236Z,3.00
2022-12-27T08:54:31.786Z,3.00
2022-12-27T08:56:59.296Z,3.06
2022-12-27T08:59:26.846Z,3.17
2022-12-27T09:01:54.262Z,3.21
2022-12-27T09:04:21.732Z,3.28
2022-12-27T09:06:49.123Z,3.24
2022-12-27T09:09:16.520Z,3.29
2022-12-27T09:11:44.345Z,3.37
2022-12-27T09:14:11.679Z,3.40
2022-12-27T09:16:39.290Z,3.52
2022-12-27T09:19:06.571Z,3.51
2022-12-27T09:21:34.356Z,3.61
2022-12-27T09:24:01.825Z,3.58
2022-12-27T09:26:29.742Z,3.68
2022-12-27T09:28:57.201Z,3.66
2022-12-27T09:31:25.049Z,3.62
2022-12-27T09:33:52.694Z,3.76
2022-12-27T09:36:24.079Z,3.88
2022-12-27T09:38:52.879Z,3.85
2022-12-27T09:42:11.453Z,3.93
2022-12-27T09:44:13.706Z,3.93
2022-12-27T09:46:52.491Z,3.99
2022-12-27T09:49:26.588Z,4.12
2022-12-27T09:52:14.193Z,4.14
2022-12-27T09:54:48.490Z,4.19
2022-12-27T09:57:26.846Z,4.27
2022-12-27T09:59:58.672Z,4.31
2022-12-27T10:02:26.754Z,4.37
2022-12-27T10:05:19.623Z,4.48
2022-12-27T10:07:45.290Z,4.42
2022-12-27T10:10:31.486Z,4.39
2022-12-27T10:12:59.111Z,4.44
2022-12-27T10:15:28.866Z,4.53
2022-12-27T10:18:02.433Z,4.56
2022-12-27T10:20:36.504Z,4.57
2022-12-27T10:23:06.650Z,4.54
2022-12-27T10:25:34.250Z,4.60
2022-12-27T10:28:02.849Z,4.78
2022-12-27T10:30:30.879Z,4.77
2022-12-27T10:32:58.518Z,4.63
2022-12-27T10:35:29.290Z,4.77
2022-12-27T14:20:14.293Z,6.70
2022-12-27T14:22:41.851Z,6.67
2022-12-27T14:25:27.703Z,6.78
2022-12-27T14:28:04.204Z,6.79
2022-12-27T14:30:31.801Z,6.86
2022-12-27T14:33:18.110Z,6.88
2022-12-27T14:36:04.217Z,6.88
2022-12-27T14:38:38.167Z,6.83
2022-12-27T14:41:05.895Z,6.85
2022-12-27T14:43:36.484Z,6.84
2022-12-27T14:46:22.806Z,6.91
2022-12-27T14:48:56.202Z,6.92
2022-12-27T14:51:58.720Z,6.94
2022-12-27T14:54:23.114Z,6.94
2022-12-27T14:56:56.666Z,6.94
2022-12-27T14:59:24.099Z,6.88
2022-12-27T15:02:10.498Z,7.01
2022-12-27T15:04:50.336Z,6.98
2022-12-27T15:07:20.687Z,6.93
2022-12-27T15:09:57.166Z,6.88
2022-12-27T15:12:27.644Z,6.96
2022-12-27T15:14:58.738Z,7.00
2022-12-27T15:17:32.085Z,7.07
2022-12-27T15:20:07.177Z,7.06
2022-12-27T15:22:53.505Z,7.07
2022-12-27T15:25:39.528Z,7.10
2022-12-27T15:28:07.636Z,7.17
2022-12-27T15:30:39.701Z,7.16
2022-12-27T15:33:16.239Z,7.11
2022-12-27T15:36:03.588Z,7.06
2022-12-27T15:38:41.205Z,7.10
2022-12-27T15:41:10.891Z,7.06
2022-12-27T15:43:38.241Z,7.11
2022-12-27T15:46:08.507Z,7.12
2022-12-27T15:48:42.625Z,7.13
2022-12-27T15:51:18.767Z,7.08
2022-12-27T15:53:52.416Z,7.12
2022-12-27T15:56:22.858Z,7.10
2022-12-27T15:59:08.976Z,7.10
2022-12-27T16:01:36.706Z,7.18
2022-12-27T16:04:24.089Z,7.13
2022-12-27T16:06:51.959Z,7.13
2022-12-27T16:09:19.655Z,7.19
2022-12-27T16:11:59.484Z,7.29
2022-12-27T16:14:29.343Z,7.20
2022-12-27T16:16:59.018Z,7.23
2022-12-27T16:19:28.814Z,7.16
2022-12-27T16:21:56.149Z,7.21
2022-12-27T16:24:23.939Z,7.19
2022-12-27T16:26:58.833Z,7.18
2022-12-27T16:29:30.252Z,7.26
2022-12-27T16:32:13.528Z,7.20
2022-12-27T16:34:40.981Z,7.21
2022-12-27T16:37:17.679Z,7.21
2022-12-27T16:40:04.035Z,7.28
2022-12-27T16:42:54.920Z,7.28
2022-12-27T16:45:25.358Z,7.26
2022-12-27T16:48:08.157Z,7.34
2022-12-27T16:50:47.871Z,7.33
2022-12-27T16:53:27.691Z,7.18
2022-12-27T16:56:11.466Z,7.22
2022-12-27T16:58:38.951Z,7.20
2022-12-27T17:01:18.647Z,7.22
2022-12-27T17:03:47.343Z,7.33
2022-12-27T17:06:31.911Z,7.42
2022-12-27T17:09:11.169Z,7.20
2022-12-27T17:11:42.489Z,7.25
2022-12-27T17:14:25.533Z,7.22
2022-12-27T17:17:00.435Z,7.34
2022-12-27T17:19:32.987Z,7.38
2022-12-27T17:22:01.482Z,7.25
2022-12-27T17:24:28.889Z,7.28
2022-12-27T17:27:15.147Z,7.19
2022-12-27T17:30:01.675Z,7.14
2022-12-27T17:32:41.527Z,7.26
2022-12-27T17:35:12.572Z,7.26
2022-12-27T17:37:46.427Z,7.27
2022-12-27T17:40:21.697Z,7.34
2022-12-27T17:43:14.080Z,7.30
2022-12-27T17:45:44.635Z,7.21
2022-12-27T17:48:23.361Z,7.26
2022-12-27T17:50:54.637Z,7.22
2022-12-27T17:53:41.379Z,7.31
2022-12-27T17:56:27.662Z,7.27
2022-12-27T17:59:02.274Z,7.30
2022-12-27T18:01:31.100Z,7.30
2022-12-27T18:03:58.502Z,7.21
2022-12-27T18:06:25.962Z,7.26
2022-12-27T18:08:53.394Z,7.22
2022-12-27T18:11:27.776Z,7.23
2022-12-27T18:14:00.628Z,7.22
2022-12-27T18:16:31.931Z,7.20
2022-12-27T18:19:04.742Z,7.16
2022-12-27T18:21:36.064Z,7.17
2022-12-27T18:24:05.110Z,7.15
2022-12-27T18:26:42.226Z,7.15
2022-12-27T18:29:12.402Z,7.20
2022-12-27T18:31:45.073Z,7.23
2022-12-27T18:34:26.707Z,7.24
2022-12-27T18:36:59.009Z,7.19
2022-12-27T18:39:32.972Z,7.22
2022-12-27T18:42:00.758Z,7.17
2022-12-27T18:44:38.814Z,7.13
2022-12-27T18:47:06.265Z,7.08
2022-12-27T18:49:37.112Z,7.09
2022-12-27T18:52:21.603Z,7.12
2022-12-27T18:54:49.022Z,7.18
2022-12-27T18:57:35.661Z,7.21
2022-12-27T19:00:14.058Z,7.14
2022-12-27T19:02:43.470Z,7.12
2022-12-27T19:05:14.029Z,7.17
2022-12-27T19:07:41.450Z,7.12
2022-12-27T19:10:14.368Z,7.12
2022-12-27T19:12:41.767Z,7.07
2022-12-27T19:15:18.403Z,7.13
2022-12-27T19:17:46.748Z,7.13
2022-12-27T19:20:33.769Z,7.19
2022-12-27T19:23:02.267Z,7.21
2022-12-27T19:25:33.717Z,7.11
2022-12-27T19:28:01.437Z,7.19
2022-12-27T19:30:32.663Z,7.10
2022-12-27T19:33:00.602Z,7.12
2022-12-27T19:35:28.278Z,7.07
2022-12-27T19:37:57.397Z,7.11
2022-12-27T19:40:24.852Z,7.19
2022-12-27T19:42:52.326Z,7.15
2022-12-27T19:45:20.899Z,7.02
2022-12-27T19:47:51.645Z,7.06
2022-12-27T19:50:19.040Z,7.04
2022-12-27T19:52:49.226Z,6.91
2022-12-27T19:55:18.122Z,7.04
2022-12-27T19:57:47.502Z,7.05
2022-12-27T20:00:15.847Z,7.16
2022-12-27T20:02:43.369Z,7.12
2022-12-27T20:05:11.146Z,7.09
2022-12-27T20:07:38.649Z,7.02
2022-12-27T20:10:06.876Z,7.08
2022-12-27T20:12:34.599Z,7.08
2022-12-27T20:15:02.207Z,7.08
2022-12-27T20:17:42.772Z,7.05
2022-12-27T20:20:12.462Z,7.12
2022-12-27T20:22:40.175Z,7.05
2022-12-27T20:25:08.256Z,7.02
2022-12-27T20:27:35.819Z,7.07
2022-12-27T20:30:06.517Z,7.04
2022-12-27T20:32:34.311Z,6.95
2022-12-27T20:35:01.613Z,6.96
2022-12-27T20:37:29.478Z,6.99
2022-12-27T20:39:57.314Z,6.96
2022-12-27T20:42:27.380Z,6.85
2022-12-27T20:44:54.704Z,6.98
2022-12-27T20:47:24.165Z,6.89
2022-12-27T20:49:53.027Z,6.93
2022-12-27T20:52:24.374Z,6.98
2022-12-27T20:55:00.064Z,6.85
2022-12-27T20:57:27.989Z,6.81
2022-12-27T20:59:55.428Z,6.84
2022-12-27T21:02:23.113Z,6.74
2022-12-27T21:04:50.600Z,6.83
2022-12-27T21:07:18.086Z,6.77
2022-12-27T21:09:45.524Z,6.78
2022-12-27T21:12:13.088Z,6.78
2022-12-27T21:14:42.445Z,6.78
2022-12-27T21:17:11.044Z,6.78
2022-12-27T21:19:38.585Z,6.79
2022-12-27T21:22:06.038Z,6.71
2022-12-27T21:24:35.035Z,6.70
2022-12-27T21:27:02.495Z,6.75
2022-12-27T21:29:31.632Z,6.72
2022-12-27T21:32:01.842Z,6.73
2022-12-27T21:34:32.116Z,6.71
2022-12-27T21:37:01.504Z,6.74
2022-12-27T21:39:28.977Z,6.77
2022-12-27T21:41:56.413Z,6.81
2022-12-27T21:44:25.605Z,6.74
2022-12-27T21:46:53.230Z,6.70
2022-12-27T21:49:20.698Z,6.72
2022-12-27T21:51:48.226Z,6.70
2022-12-27T21:54:16.400Z,6.67
2022-12-27T21:56:44.038Z,6.68
2022-12-27T21:59:12.519Z,6.42
2022-12-27T22:01:51.322Z,6.54
2022-12-27T22:04:20.819Z,6.44
2022-12-27T22:06:50.507Z,6.62
2022-12-27T22:09:19.392Z,6.48
2022-12-27T22:11:48.182Z,6.40
2022-12-27T22:14:15.645Z,6.43
2022-12-27T22:16:43.044Z,6.42
2022-12-27T22:19:11.124Z,6.42
2022-12-27T22:21:38.689Z,6.45
2022-12-27T22:24:06.229Z,6.43
2022-12-27T22:26:34.918Z,6.47
2022-12-27T22:29:02.840Z,6.34
2022-12-27T22:31:30.916Z,6.15
2022-12-27T22:33:59.038Z,6.31
2022-12-27T22:36:26.501Z,6.21
2022-12-27T22:38:59.329Z,6.33
2022-12-27T22:41:28.144Z,6.10
2022-12-27T22:43:56.371Z,6.11
2022-12-27T22:46:23.981Z,6.12
2022-12-27T22:48:51.943Z,6.04
2022-12-27T22:51:20.803Z,5.83
2022-12-27T22:53:49.645Z,5.84
2022-12-27T22:56:17.995Z,5.91
2022-12-27T22:58:45.515Z,5.96
2022-12-27T23:01:13.153Z,6.03
2022-12-27T23:03:41.060Z,5.93
2022-12-27T23:06:08.696Z,5.98
2022-12-27T23:08:39.510Z,5.83
2022-12-27T23:11:27.147Z,5.60
2022-12-27T23:13:58.527Z,5.52
2022-12-27T23:16:26.036Z,5.70
2022-12-27T23:18:53.752Z,5.66
2022-12-27T23:21:24.568Z,5.46
2022-12-27T23:23:52.424Z,5.41
2022-12-27T23:26:20.792Z,5.34
2022-12-27T23:28:48.280Z,5.28
2022-12-27T23:31:15.777Z,5.25
2022-12-27T23:33:43.396Z,5.29
2022-12-27T23:36:11.481Z,5.14
2022-12-27T23:38:39.004Z,5.26
2022-12-27T23:41:06.715Z,5.18
2022-12-27T23:43:53.949Z,5.23
2022-12-27T23:46:23.947Z,5.06
2022-12-27T23:48:51.411Z,5.12
2022-12-27T23:51:18.937Z,5.01
2022-12-27T23:53:46.475Z,5.17
2022-12-27T23:56:15.366Z,5.15
2022-12-27T23:58:42.904Z,5.13
